Portipesca — CUCU4 — position and weather

sailwx.info

Track history (hours):
 
Tides and Currents Weather Stations Pressure Air Temp Water Temp Dewpoint Dewpoint Depression Visibility Wind Speed Wind Dir Waves Ship Positions

Portipesca

Last reported at 2017-Oct-13 02:50 UTC. Time now 2017-Oct-19 03:54 UTC.
Position N 37°01' W 008°16'.

Length 23 m.

Type: Fishing. MMSI: 263409360.

Date/timePositionNaut miles runAvg speedWind from/ knotsBaromVisibWave heightAir tempDewpointWater temp
2017-Oct-13 02:50N 37°01' W 008°16'6 1.9
2017-Oct-12 23:43N 36°59' W 008°23'2 3.3
2017-Oct-12 23:00N 37°00' W 008°20'610.0
2017-Oct-12 22:26N 36°59' W 008°14'6 0.3
2017-Oct-12 02:15N 36°60' W 008°21'2 8.5
2017-Oct-12 02:00N 36°59' W 008°23'2 0.6
2017-Oct-11 22:53N 37°00' W 008°22'6 7.3
2017-Oct-11 22:00N 37°01' W 008°30'7 0.2
2017-Oct-10 08:56N 37°08' W 008°32'0 0.4
2017-Oct-10 08:30N 37°08' W 008°32'0 0.0
2017-Oct-10 08:00N 37°08' W 008°32'0 0.0
2017-Oct-10 07:29N 37°08' W 008°32'8 7.5
2017-Oct-10 06:21N 37°00' W 008°36'3 9.1
2017-Oct-10 05:58N 37°01' W 008°40'2 4.2
2017-Oct-10 05:29N 37°02' W 008°41'5 9.3
2017-Oct-10 04:59N 37°03' W 008°47'4 1.0
2017-Oct-10 01:12N 37°01' W 008°43'2 8.7
2017-Oct-10 00:59N 37°02' W 008°42'3 6.0
2017-Oct-10 00:30N 37°01' W 008°38'3 5.0
2017-Oct-09 23:59N 36°60' W 008°35'5 8.2
2017-Oct-09 23:26N 37°04' W 008°33'4 8.1
2017-Oct-09 22:57N 37°08' W 008°32'0 0.0
2017-Oct-09 11:39N 37°08' W 008°32'0 0.5
2017-Oct-09 11:29N 37°08' W 008°32'1 1.1
2017-Oct-09 11:00N 37°07' W 008°32'5 9.2
2017-Oct-09 10:30N 37°05' W 008°36'5 9.6
2017-Oct-09 10:00N 37°03' W 008°42'5 9.4
2017-Oct-09 09:30N 37°02' W 008°48'14 5.4
2017-Oct-09 07:00N 37°14' W 008°54'1 1.8
2017-Oct-09 06:30N 37°15' W 008°54'0 0.2
2017-Oct-09 05:39N 37°15' W 008°54'0 0.1
2017-Oct-09 05:04N 37°15' W 008°54'0 0.3
2017-Oct-09 04:57N 37°15' W 008°54'16 5.6
2017-Oct-09 02:10N 37°00' W 008°48'310.3
2017-Oct-09 01:50N 37°00' W 008°43'310.4
2017-Oct-09 01:30N 37°01' W 008°39'5 3.3
2017-Oct-09 00:03N 37°01' W 008°33'110.5
2017-Oct-09 00:00N 37°01' W 008°32'2 3.5
2017-Oct-08 23:30N 36°60' W 008°34'4 7.0
2017-Oct-08 22:56N 37°04' W 008°34'4 9.4
2017-Oct-08 22:30N 37°07' W 008°32'  
2017-Oct-06 10:19N 37°08' W 008°32'0 0.0
2017-Oct-06 10:00N 37°08' W 008°32'0 0.0
2017-Oct-06 09:30N 37°08' W 008°32'0 0.0
2017-Oct-06 09:00N 37°08' W 008°32'0 0.0
2017-Oct-06 08:30N 37°08' W 008°32'0 0.0
2017-Oct-06 08:00N 37°08' W 008°32'0 0.0
2017-Oct-06 07:30N 37°08' W 008°32'7 6.8
2017-Oct-06 06:27N 37°02' W 008°37'3 6.7
2017-Oct-06 06:00N 36°60' W 008°35'1 0.4
2017-Oct-06 04:27N 36°60' W 008°35'1 1.3
2017-Oct-06 04:00N 36°60' W 008°35'1 1.2
2017-Oct-06 03:30N 37°00' W 008°35'1 2.3
2017-Oct-06 03:00N 36°60' W 008°33'2 2.8
2017-Oct-06 02:26N 37°01' W 008°35'2 4.9
2017-Oct-06 02:00N 36°60' W 008°33'4 6.0
2017-Oct-06 01:24N 36°60' W 008°28'1 1.6
2017-Oct-06 01:00N 36°59' W 008°27'0 0.8
2017-Oct-06 00:25N 36°59' W 008°27'0 0.5
2017-Oct-06 00:00N 36°59' W 008°27'0 0.3
2017-Oct-05 23:30N 36°59' W 008°27'4 8.1
2017-Oct-05 23:00N 37°01' W 008°31'3 6.7
2017-Oct-05 22:30N 37°04' W 008°33'4 8.7
2017-Oct-05 22:00N 37°08' W 008°32'  
2017-Oct-03 06:35N 37°08' W 008°32'0 0.0
2017-Oct-03 06:24N 37°08' W 008°32'0 0.0
2017-Oct-03 06:00N 37°08' W 008°32'0 0.0
2017-Oct-03 05:24N 37°08' W 008°32'0 0.0
2017-Oct-03 04:55N 37°08' W 008°32'0 0.0
2017-Oct-03 04:18N 37°08' W 008°32'0 0.3
2017-Oct-03 04:00N 37°08' W 008°32'0 0.0
2017-Oct-03 03:30N 37°08' W 008°32'  
Track history (hours):
 
Tides and Currents Weather Stations Pressure Air Temp Water Temp Dewpoint Dewpoint Depression Visibility Wind Speed Wind Dir Waves Ship Positions

Portipesca

Last reported at 2017-Oct-13 02:50 UTC. Time now 2017-Oct-19 03:54 UTC.
Position N 37°01' W 008°16'.

Length 23 m.

Type: Fishing. MMSI: 263409360.

Date/timePositionNaut miles runAvg speedWind from/ knotsBaromVisibWave heightAir tempDewpointWater temp
2017-Oct-13 02:50N 37°01' W 008°16'6 1.9
2017-Oct-12 23:43N 36°59' W 008°23'2 3.3
2017-Oct-12 23:00N 37°00' W 008°20'610.0
2017-Oct-12 22:26N 36°59' W 008°14'6 0.3
2017-Oct-12 02:15N 36°60' W 008°21'2 8.5
2017-Oct-12 02:00N 36°59' W 008°23'2 0.6
2017-Oct-11 22:53N 37°00' W 008°22'6 7.3
2017-Oct-11 22:00N 37°01' W 008°30'7 0.2
2017-Oct-10 08:56N 37°08' W 008°32'0 0.4
2017-Oct-10 08:30N 37°08' W 008°32'0 0.0
2017-Oct-10 08:00N 37°08' W 008°32'0 0.0
2017-Oct-10 07:29N 37°08' W 008°32'8 7.5
2017-Oct-10 06:21N 37°00' W 008°36'3 9.1
2017-Oct-10 05:58N 37°01' W 008°40'2 4.2
2017-Oct-10 05:29N 37°02' W 008°41'5 9.3
2017-Oct-10 04:59N 37°03' W 008°47'4 1.0
2017-Oct-10 01:12N 37°01' W 008°43'2 8.7
2017-Oct-10 00:59N 37°02' W 008°42'3 6.0
2017-Oct-10 00:30N 37°01' W 008°38'3 5.0
2017-Oct-09 23:59N 36°60' W 008°35'5 8.2
2017-Oct-09 23:26N 37°04' W 008°33'4 8.1
2017-Oct-09 22:57N 37°08' W 008°32'0 0.0
2017-Oct-09 11:39N 37°08' W 008°32'0 0.5
2017-Oct-09 11:29N 37°08' W 008°32'1 1.1
2017-Oct-09 11:00N 37°07' W 008°32'5 9.2
2017-Oct-09 10:30N 37°05' W 008°36'5 9.6
2017-Oct-09 10:00N 37°03' W 008°42'5 9.4
2017-Oct-09 09:30N 37°02' W 008°48'14 5.4
2017-Oct-09 07:00N 37°14' W 008°54'1 1.8
2017-Oct-09 06:30N 37°15' W 008°54'0 0.2
2017-Oct-09 05:39N 37°15' W 008°54'0 0.1
2017-Oct-09 05:04N 37°15' W 008°54'0 0.3
2017-Oct-09 04:57N 37°15' W 008°54'16 5.6
2017-Oct-09 02:10N 37°00' W 008°48'310.3
2017-Oct-09 01:50N 37°00' W 008°43'310.4
2017-Oct-09 01:30N 37°01' W 008°39'5 3.3
2017-Oct-09 00:03N 37°01' W 008°33'110.5
2017-Oct-09 00:00N 37°01' W 008°32'2 3.5
2017-Oct-08 23:30N 36°60' W 008°34'4 7.0
2017-Oct-08 22:56N 37°04' W 008°34'4 9.4
2017-Oct-08 22:30N 37°07' W 008°32'  
2017-Oct-06 10:19N 37°08' W 008°32'0 0.0
2017-Oct-06 10:00N 37°08' W 008°32'0 0.0
2017-Oct-06 09:30N 37°08' W 008°32'0 0.0
2017-Oct-06 09:00N 37°08' W 008°32'0 0.0
2017-Oct-06 08:30N 37°08' W 008°32'0 0.0
2017-Oct-06 08:00N 37°08' W 008°32'0 0.0
2017-Oct-06 07:30N 37°08' W 008°32'7 6.8
2017-Oct-06 06:27N 37°02' W 008°37'3 6.7
2017-Oct-06 06:00N 36°60' W 008°35'1 0.4
2017-Oct-06 04:27N 36°60' W 008°35'1 1.3
2017-Oct-06 04:00N 36°60' W 008°35'1 1.2
2017-Oct-06 03:30N 37°00' W 008°35'1 2.3
2017-Oct-06 03:00N 36°60' W 008°33'2 2.8
2017-Oct-06 02:26N 37°01' W 008°35'2 4.9
2017-Oct-06 02:00N 36°60' W 008°33'4 6.0
2017-Oct-06 01:24N 36°60' W 008°28'1 1.6
2017-Oct-06 01:00N 36°59' W 008°27'0 0.8
2017-Oct-06 00:25N 36°59' W 008°27'0 0.5
2017-Oct-06 00:00N 36°59' W 008°27'0 0.3
2017-Oct-05 23:30N 36°59' W 008°27'4 8.1
2017-Oct-05 23:00N 37°01' W 008°31'3 6.7
2017-Oct-05 22:30N 37°04' W 008°33'4 8.7
2017-Oct-05 22:00N 37°08' W 008°32'  
2017-Oct-03 06:35N 37°08' W 008°32'0 0.0
2017-Oct-03 06:24N 37°08' W 008°32'0 0.0
2017-Oct-03 06:00N 37°08' W 008°32'0 0.0
2017-Oct-03 05:24N 37°08' W 008°32'0 0.0
2017-Oct-03 04:55N 37°08' W 008°32'0 0.0
2017-Oct-03 04:18N 37°08' W 008°32'0 0.3
2017-Oct-03 04:00N 37°08' W 008°32'0 0.0
2017-Oct-03 03:30N 37°08' W 008°32'  

Dump ship's entire track history